createdAt,value
2018-07-01T00:00:26.349Z,17.30
2018-07-01T00:02:55.674Z,17.25
2018-07-01T00:05:24.560Z,17.20
2018-07-01T00:07:55.181Z,17.17
2018-07-01T00:10:23.809Z,16.96
2018-07-01T00:12:53.851Z,16.74
2018-07-01T00:15:23.886Z,16.74
2018-07-01T00:17:53.041Z,16.85
2018-07-01T00:20:22.530Z,16.92
2018-07-01T00:22:52.542Z,16.85
2018-07-01T00:25:22.509Z,16.83
2018-07-01T00:27:51.383Z,16.85
2018-07-01T00:30:20.021Z,16.77
2018-07-01T00:32:50.803Z,16.68
2018-07-01T00:35:19.810Z,16.61
2018-07-01T00:37:48.405Z,16.61
2018-07-01T00:40:18.273Z,16.56
2018-07-01T00:42:47.175Z,16.57
2018-07-01T00:45:16.129Z,16.55
2018-07-01T00:47:44.851Z,16.55
2018-07-01T00:50:14.177Z,16.58
2018-07-01T00:52:43.611Z,16.54
2018-07-01T00:55:12.363Z,16.56
2018-07-01T00:57:42.189Z,16.61
2018-07-01T01:00:11.131Z,16.61
2018-07-01T01:02:39.681Z,16.61
2018-07-01T01:05:08.313Z,16.61
2018-07-01T01:07:37.489Z,16.60
2018-07-01T01:10:06.664Z,16.56
2018-07-01T01:12:36.171Z,16.50
2018-07-01T01:15:05.133Z,16.42
2018-07-01T01:17:34.965Z,16.33
2018-07-01T01:20:04.087Z,16.21
2018-07-01T01:22:33.049Z,15.92
2018-07-01T01:25:01.913Z,15.74
2018-07-01T01:27:30.861Z,15.66
2018-07-01T01:30:00.590Z,15.61
2018-07-01T01:32:29.364Z,15.55
2018-07-01T01:34:59.209Z,15.51
2018-07-01T01:37:28.766Z,15.60
2018-07-01T01:39:58.802Z,15.57
2018-07-01T01:42:59.261Z,15.43
2018-07-01T01:45:33.444Z,15.25
2018-07-01T01:48:06.782Z,15.29
2018-07-01T01:50:40.846Z,15.34
2018-07-01T01:53:25.267Z,15.47
2018-07-01T01:56:15.966Z,15.43
2018-07-01T01:59:04.829Z,15.30
2018-07-01T02:01:41.381Z,15.31
2018-07-01T02:04:22.279Z,15.34
2018-07-01T02:06:56.967Z,15.46
2018-07-01T02:09:28.057Z,15.63
2018-07-01T02:11:58.957Z,15.70
2018-07-01T02:14:38.208Z,15.73
2018-07-01T02:17:11.029Z,15.82
2018-07-01T02:19:40.666Z,15.84
2018-07-01T02:22:12.180Z,15.80
2018-07-01T02:24:43.686Z,15.77
2018-07-01T02:27:13.275Z,15.76
2018-07-01T02:29:42.887Z,15.79
2018-07-01T02:32:12.618Z,15.83
2018-07-01T02:34:41.455Z,15.76
2018-07-01T02:37:12.366Z,15.71
2018-07-01T02:39:41.927Z,15.62
2018-07-01T02:42:11.762Z,15.59
2018-07-01T02:44:40.970Z,15.60
2018-07-01T02:47:10.030Z,15.57
2018-07-01T02:49:39.119Z,15.59
2018-07-01T02:52:08.286Z,15.56
2018-07-01T02:54:37.242Z,15.51
2018-07-01T02:57:06.276Z,15.45
2018-07-01T02:59:35.589Z,15.37
2018-07-01T03:02:04.486Z,15.24
2018-07-01T03:04:33.026Z,15.28
2018-07-01T03:07:03.394Z,15.20
2018-07-01T03:09:32.064Z,15.14
2018-07-01T03:12:01.741Z,15.21
2018-07-01T03:14:31.010Z,15.30
2018-07-01T03:17:00.857Z,15.41
2018-07-01T03:19:30.662Z,15.46
2018-07-01T03:22:00.136Z,15.59
2018-07-01T03:24:29.141Z,15.67
2018-07-01T03:26:58.061Z,15.71
2018-07-01T03:29:29.113Z,15.79
2018-07-01T03:31:58.917Z,15.83
2018-07-01T03:34:27.675Z,15.86
2018-07-01T03:36:56.794Z,15.86
2018-07-01T03:39:25.969Z,15.85
2018-07-01T03:41:54.867Z,15.86
2018-07-01T03:44:23.914Z,15.90
2018-07-01T03:46:52.945Z,15.89
2018-07-01T03:49:22.541Z,15.85
2018-07-01T03:51:52.022Z,15.82
2018-07-01T03:54:22.669Z,15.79
2018-07-01T03:56:53.825Z,15.77
2018-07-01T03:59:22.503Z,15.78
2018-07-01T04:01:51.256Z,15.79
2018-07-01T04:04:21.599Z,15.78
2018-07-01T04:06:50.672Z,15.74
2018-07-01T04:09:19.677Z,15.73
2018-07-01T04:11:48.630Z,15.76
2018-07-01T04:14:17.479Z,15.75
2018-07-01T04:16:46.698Z,15.76
2018-07-01T04:19:16.341Z,15.82
2018-07-01T04:21:45.690Z,15.89
2018-07-01T04:24:15.693Z,16.00
2018-07-01T04:26:45.135Z,16.31
2018-07-01T04:29:15.022Z,16.75
2018-07-01T04:31:43.861Z,16.91
2018-07-01T04:34:13.022Z,17.30
2018-07-01T04:36:42.685Z,17.56
2018-07-01T04:39:11.557Z,17.59
2018-07-01T04:41:41.917Z,17.83
2018-07-01T04:44:11.782Z,17.89
2018-07-01T04:46:40.834Z,17.83
2018-07-01T04:49:10.759Z,18.01
2018-07-01T04:51:41.754Z,17.99
2018-07-01T04:54:12.007Z,18.22
2018-07-01T04:56:41.069Z,18.25
2018-07-01T04:59:10.302Z,18.25
2018-07-01T05:01:40.881Z,18.46
2018-07-01T05:04:10.230Z,18.52
2018-07-01T05:06:39.613Z,18.55
2018-07-01T05:09:12.651Z,18.60
2018-07-01T05:11:42.540Z,18.64
2018-07-01T05:14:11.511Z,18.80
2018-07-01T05:16:40.774Z,18.87
2018-07-01T05:19:11.054Z,18.94
2018-07-01T05:21:40.701Z,18.96
2018-07-01T05:24:11.831Z,19.05
2018-07-01T05:26:41.510Z,19.14
2018-07-01T05:29:10.815Z,19.31
2018-07-01T05:31:39.591Z,19.49
2018-07-01T05:34:09.090Z,19.56
2018-07-01T05:36:38.378Z,19.57
2018-07-01T05:39:11.981Z,19.66
2018-07-01T05:41:41.873Z,19.82
2018-07-01T05:44:12.460Z,19.83
2018-07-01T05:46:42.297Z,19.98
2018-07-01T05:49:12.321Z,20.16
2018-07-01T05:51:42.941Z,20.17
2018-07-01T05:54:13.087Z,20.21
2018-07-01T05:56:43.031Z,20.16
2018-07-01T05:59:12.198Z,20.36
2018-07-01T06:01:41.625Z,20.44
2018-07-01T06:04:10.365Z,20.54
2018-07-01T06:06:39.048Z,20.64
2018-07-01T06:09:11.217Z,20.71
2018-07-01T06:11:41.089Z,20.83
2018-07-01T06:14:10.766Z,20.93
2018-07-01T06:16:40.268Z,20.91
2018-07-01T06:19:11.049Z,20.94
2018-07-01T06:21:41.055Z,21.07
2018-07-01T06:24:10.239Z,21.03
2018-07-01T06:26:39.249Z,21.07
2018-07-01T06:29:11.325Z,21.09
2018-07-01T06:31:41.586Z,21.09
2018-07-01T06:34:10.682Z,21.09
2018-07-01T06:36:39.959Z,21.18
2018-07-01T06:39:10.423Z,21.30
2018-07-01T06:41:40.630Z,21.35
2018-07-01T06:44:09.266Z,21.49
2018-07-01T06:46:38.895Z,21.40
2018-07-01T06:49:08.381Z,21.52
2018-07-01T06:51:37.762Z,21.58
2018-07-01T06:54:07.113Z,21.56
2018-07-01T06:56:36.510Z,21.68
2018-07-01T06:59:05.205Z,21.72
2018-07-01T07:01:34.655Z,21.80
2018-07-01T07:04:03.561Z,21.94
2018-07-01T07:06:33.826Z,21.96
2018-07-01T07:09:03.001Z,21.97
2018-07-01T07:11:31.553Z,22.07
2018-07-01T07:13:59.997Z,22.17
2018-07-01T07:16:29.686Z,22.34
2018-07-01T07:18:58.629Z,22.34
2018-07-01T07:21:27.989Z,22.40
2018-07-01T07:23:57.678Z,22.47
2018-07-01T07:26:26.442Z,22.62
2018-07-01T07:28:56.246Z,22.52
2018-07-01T07:31:25.476Z,22.59
2018-07-01T07:33:54.742Z,22.61
2018-07-01T07:36:25.469Z,22.76
2018-07-01T07:38:54.252Z,22.74
2018-07-01T07:41:24.116Z,22.82
2018-07-01T07:43:53.173Z,22.86
2018-07-01T07:46:22.151Z,22.88
2018-07-01T07:48:51.233Z,22.77
2018-07-01T07:51:20.705Z,23.06
2018-07-01T07:53:49.782Z,23.17
2018-07-01T07:56:19.061Z,23.42
2018-07-01T07:58:49.429Z,23.59
2018-07-01T08:01:19.653Z,23.41
2018-07-01T08:03:53.030Z,23.55
2018-07-01T08:06:23.521Z,23.58
2018-07-01T08:08:55.109Z,23.75
2018-07-01T08:11:23.889Z,23.86
2018-07-01T08:13:53.718Z,23.68
2018-07-01T08:16:23.033Z,23.83
2018-07-01T08:18:53.521Z,23.96
2018-07-01T08:21:22.027Z,24.00
2018-07-01T08:23:51.494Z,23.99
2018-07-01T08:26:20.850Z,24.10
2018-07-01T08:28:50.408Z,24.04
2018-07-01T08:31:19.263Z,24.15
2018-07-01T08:33:49.727Z,24.13
2018-07-01T08:36:19.952Z,24.29
2018-07-01T08:38:50.117Z,24.27
2018-07-01T08:41:18.586Z,24.45
2018-07-01T08:43:49.060Z,24.60
2018-07-01T08:46:18.950Z,24.37
2018-07-01T08:48:47.986Z,24.59
2018-07-01T08:51:22.431Z,24.53
2018-07-01T08:53:52.488Z,24.58
2018-07-01T08:56:21.769Z,24.61
2018-07-01T08:58:50.961Z,24.63
2018-07-01T09:01:20.069Z,24.63
2018-07-01T09:03:50.114Z,24.67
2018-07-01T09:06:18.960Z,24.68
2018-07-01T09:08:47.839Z,24.59
2018-07-01T09:11:18.274Z,24.66
2018-07-01T09:13:47.120Z,24.74
2018-07-01T09:16:16.132Z,24.56
2018-07-01T09:18:44.968Z,24.56
2018-07-01T09:21:14.132Z,24.63
2018-07-01T09:23:43.401Z,24.67
2018-07-01T09:26:16.993Z,24.68
2018-07-01T09:28:46.770Z,24.58
2018-07-01T09:31:17.101Z,24.62
2018-07-01T09:33:47.827Z,24.68
2018-07-01T09:36:16.890Z,24.45
2018-07-01T09:38:47.259Z,24.51
2018-07-01T09:41:15.813Z,24.51
2018-07-01T09:43:45.085Z,24.67
2018-07-01T09:46:14.126Z,24.59
2018-07-01T09:48:43.117Z,24.66
2018-07-01T09:51:13.589Z,24.69
2018-07-01T09:53:42.948Z,24.74
2018-07-01T09:56:12.465Z,24.74
2018-07-01T09:58:42.233Z,24.91
2018-07-01T10:01:11.298Z,25.01
2018-07-01T10:03:40.989Z,24.99
2018-07-01T10:06:13.133Z,24.88
2018-07-01T10:08:43.829Z,24.95
2018-07-01T10:11:13.511Z,25.10
2018-07-01T10:13:43.482Z,25.12
2018-07-01T10:16:13.713Z,25.23
2018-07-01T10:18:44.008Z,25.37
2018-07-01T10:21:13.697Z,24.97
2018-07-01T10:23:42.542Z,24.71
2018-07-01T10:26:11.957Z,24.59
2018-07-01T10:28:56.065Z,24.43
2018-07-01T10:31:24.643Z,24.55
2018-07-01T10:33:58.307Z,24.90
2018-07-01T10:36:27.217Z,25.15
2018-07-01T10:38:56.624Z,25.16
2018-07-01T10:41:26.697Z,24.72
2018-07-01T10:43:57.509Z,25.09
2018-07-01T10:46:26.932Z,25.46
2018-07-01T10:48:57.492Z,25.57
2018-07-01T10:51:26.923Z,25.45
2018-07-01T10:53:57.077Z,25.52
2018-07-01T10:56:26.270Z,25.58
2018-07-01T10:58:56.351Z,25.69
2018-07-01T11:01:26.894Z,25.22
2018-07-01T11:03:56.694Z,25.22
2018-07-01T11:06:26.322Z,25.12
2018-07-01T11:08:55.400Z,25.02
2018-07-01T11:11:25.338Z,25.00
2018-07-01T11:13:54.702Z,24.96
2018-07-01T11:16:23.864Z,25.09
2018-07-01T11:18:54.730Z,25.50
2018-07-01T11:21:24.761Z,26.03
2018-07-01T11:23:54.129Z,26.21
2018-07-01T11:26:28.110Z,26.24
2018-07-01T11:28:56.789Z,26.21
2018-07-01T11:31:25.662Z,26.38
2018-07-01T11:33:55.259Z,26.25
2018-07-01T11:36:24.246Z,25.73
2018-07-01T11:38:54.388Z,25.92
2018-07-01T11:41:24.598Z,25.69
2018-07-01T11:43:53.792Z,25.89
2018-07-01T11:46:28.559Z,25.56
2018-07-01T11:48:58.412Z,25.48
2018-07-01T11:51:28.957Z,25.71
2018-07-01T11:53:58.806Z,26.05
2018-07-01T11:56:27.569Z,26.15
2018-07-01T11:58:56.842Z,26.66
2018-07-01T12:01:26.610Z,26.98
2018-07-01T12:03:55.116Z,26.16
2018-07-01T12:06:27.657Z,25.91
2018-07-01T12:08:56.822Z,26.05
2018-07-01T12:11:25.960Z,26.33
2018-07-01T12:13:56.085Z,26.25
2018-07-01T12:16:25.997Z,26.79
2018-07-01T12:18:55.227Z,26.67
2018-07-01T12:21:28.766Z,27.04
2018-07-01T12:23:59.073Z,27.49
2018-07-01T12:26:28.016Z,27.55
2018-07-01T12:29:04.166Z,27.23
2018-07-01T12:31:36.518Z,27.74
2018-07-01T12:34:05.825Z,27.05
2018-07-01T12:36:39.225Z,27.58
2018-07-01T12:39:11.989Z,28.24
2018-07-01T12:41:40.856Z,27.63
2018-07-01T12:44:11.493Z,28.37
2018-07-01T12:46:40.198Z,28.56
2018-07-01T12:49:11.514Z,28.62
2018-07-01T12:51:41.942Z,28.95
2018-07-01T12:54:12.129Z,28.68
2018-07-01T12:56:41.869Z,28.54
2018-07-01T12:59:16.174Z,28.31
2018-07-01T13:01:47.018Z,28.52
2018-07-01T13:04:19.697Z,29.06
2018-07-01T13:06:50.112Z,29.82
2018-07-01T13:09:18.703Z,31.27
2018-07-01T13:11:47.708Z,31.91
2018-07-01T13:14:16.742Z,32.26
2018-07-01T13:16:46.242Z,33.20
2018-07-01T13:19:17.209Z,34.54
2018-07-01T13:21:45.737Z,35.51
2018-07-01T13:24:14.514Z,35.35
2018-07-01T13:26:47.345Z,36.22
2018-07-01T13:29:16.773Z,36.07
2018-07-01T13:31:47.100Z,35.21
2018-07-01T13:34:16.601Z,35.33
2018-07-01T13:36:45.837Z,35.37
2018-07-01T13:39:14.527Z,36.52
2018-07-01T13:41:43.914Z,37.40
2018-07-01T13:44:12.741Z,36.13
2018-07-01T13:46:41.430Z,35.77
2018-07-01T13:49:13.667Z,37.13
2018-07-01T13:51:42.588Z,37.82
2018-07-01T13:54:11.653Z,36.59
2018-07-01T13:56:40.946Z,36.53
2018-07-01T13:59:09.869Z,36.15
2018-07-01T14:01:39.939Z,35.96
2018-07-01T14:04:09.312Z,36.89
2018-07-01T14:06:38.404Z,35.98
2018-07-01T14:09:09.527Z,36.49
2018-07-01T14:11:39.754Z,37.51
2018-07-01T14:14:08.931Z,37.08
2018-07-01T14:16:38.052Z,38.15
2018-07-01T14:19:07.570Z,36.58
2018-07-01T14:21:37.880Z,37.31
2018-07-01T14:24:06.654Z,38.53
2018-07-01T14:26:35.211Z,39.34
2018-07-01T14:29:05.282Z,40.11
2018-07-01T14:31:35.076Z,36.69
2018-07-01T14:34:04.283Z,37.97
2018-07-01T14:36:33.922Z,37.82
2018-07-01T14:39:06.101Z,37.50
2018-07-01T14:41:35.205Z,39.01
2018-07-01T14:44:04.362Z,38.19
2018-07-01T14:46:33.886Z,37.25
2018-07-01T14:49:04.655Z,37.42
2018-07-01T14:51:34.434Z,36.89
2018-07-01T14:54:03.958Z,37.63
2018-07-01T14:56:32.570Z,35.90
2018-07-01T14:59:02.356Z,35.37
2018-07-01T15:01:32.084Z,36.26
2018-07-01T15:04:02.102Z,36.17
2018-07-01T15:06:31.837Z,35.82
2018-07-01T15:09:00.796Z,38.60
2018-07-01T15:11:30.242Z,37.42
2018-07-01T15:13:59.359Z,37.74
2018-07-01T15:16:27.942Z,37.04
2018-07-01T15:18:57.501Z,37.29
2018-07-01T15:21:28.070Z,39.23
2018-07-01T15:23:57.272Z,39.74
2018-07-01T15:26:26.970Z,38.58
2018-07-01T15:28:56.382Z,37.93
2018-07-01T15:31:25.474Z,39.48
2018-07-01T15:33:54.370Z,40.14
2018-07-01T15:36:24.303Z,41.03
2018-07-01T15:38:54.696Z,40.66
2018-07-01T15:41:23.693Z,37.85
2018-07-01T15:43:52.881Z,40.15
2018-07-01T15:46:22.903Z,39.89
2018-07-01T15:48:57.534Z,38.63
2018-07-01T15:51:26.950Z,37.28
2018-07-01T15:53:56.117Z,37.01
2018-07-01T15:56:27.173Z,38.44
2018-07-01T15:58:57.054Z,38.27
2018-07-01T16:01:27.515Z,38.39
2018-07-01T16:04:00.663Z,39.98
2018-07-01T16:06:30.474Z,40.53
2018-07-01T16:09:00.499Z,40.09
2018-07-01T16:11:30.264Z,39.25
2018-07-01T16:13:59.539Z,38.36
2018-07-01T16:16:28.461Z,38.82
2018-07-01T16:18:57.905Z,37.72
2018-07-01T16:21:27.961Z,35.79
2018-07-01T16:23:57.759Z,36.16
2018-07-01T16:26:31.856Z,35.51
2018-07-01T16:29:01.610Z,33.48
2018-07-01T16:31:33.016Z,31.44
2018-07-01T16:34:02.783Z,31.01
2018-07-01T16:36:31.982Z,31.34
2018-07-01T16:39:10.284Z,30.69
2018-07-01T16:41:39.594Z,30.53
2018-07-01T16:44:13.306Z,29.41
2018-07-01T16:46:51.826Z,29.48
2018-07-01T16:49:20.967Z,30.17
2018-07-01T16:51:53.010Z,30.99
2018-07-01T16:54:21.950Z,31.49
2018-07-01T16:56:51.825Z,31.71
2018-07-01T16:59:22.778Z,30.77
2018-07-01T17:01:54.085Z,31.29
2018-07-01T17:04:23.275Z,32.27
2018-07-01T17:06:52.572Z,32.19
2018-07-01T17:09:22.205Z,31.61
2018-07-01T17:11:53.514Z,31.42
2018-07-01T17:14:24.362Z,31.40
2018-07-01T17:16:53.860Z,30.41
2018-07-01T17:19:22.944Z,30.76
2018-07-01T17:21:52.677Z,30.35
2018-07-01T17:24:22.869Z,29.37
2018-07-01T17:26:52.642Z,29.51
2018-07-01T17:29:21.356Z,29.08
2018-07-01T17:31:55.605Z,28.84
2018-07-01T17:34:24.474Z,28.28
2018-07-01T17:36:53.673Z,28.13
2018-07-01T17:39:23.226Z,28.07
2018-07-01T17:41:55.009Z,27.82
2018-07-01T17:44:23.902Z,27.46
2018-07-01T17:46:53.007Z,27.60
2018-07-01T17:49:21.977Z,27.52
2018-07-01T17:51:50.838Z,27.84
2018-07-01T17:54:20.662Z,28.37
2018-07-01T17:56:50.710Z,28.76
2018-07-01T17:59:19.961Z,29.05
2018-07-01T18:01:49.346Z,28.99
2018-07-01T18:04:18.552Z,29.96
2018-07-01T18:06:47.720Z,32.09
2018-07-01T18:09:16.890Z,33.92
2018-07-01T18:11:48.157Z,34.70
2018-07-01T18:14:18.071Z,35.99
2018-07-01T18:16:47.330Z,37.18
2018-07-01T18:19:16.508Z,37.89
2018-07-01T18:21:58.617Z,38.75
2018-07-01T18:26:43.713Z,38.49
2018-07-01T18:29:17.869Z,37.94
2018-07-01T18:31:43.130Z,38.18
2018-07-01T18:34:12.141Z,36.93
2018-07-01T18:36:40.974Z,33.14
2018-07-01T18:39:11.368Z,30.57
2018-07-01T18:41:40.557Z,28.54
2018-07-01T18:44:09.505Z,27.03
2018-07-01T18:46:38.962Z,26.07
2018-07-01T18:49:17.793Z,25.48
2018-07-01T18:51:48.039Z,24.97
2018-07-01T18:54:18.150Z,24.56
2018-07-01T18:56:48.232Z,24.31
2018-07-01T18:59:17.889Z,24.27
2018-07-01T19:01:50.451Z,24.07
2018-07-01T19:04:20.156Z,24.01
2018-07-01T19:06:50.565Z,23.78
2018-07-01T19:09:19.366Z,23.42
2018-07-01T19:11:49.105Z,23.26
2018-07-01T19:14:20.718Z,22.95
2018-07-01T19:16:49.537Z,22.68
2018-07-01T19:19:19.446Z,22.42
2018-07-01T19:21:49.070Z,22.34
2018-07-01T19:24:18.408Z,22.08
2018-07-01T19:29:22.720Z,21.65
2018-07-01T19:31:52.777Z,21.59
2018-07-01T19:34:22.425Z,21.44
2018-07-01T19:36:51.672Z,21.34
2018-07-01T19:39:21.139Z,21.21
2018-07-01T19:41:51.621Z,21.14
2018-07-01T19:44:20.586Z,21.07
2018-07-01T19:46:49.520Z,21.00
2018-07-01T19:49:19.259Z,20.90
2018-07-01T19:51:48.725Z,20.73
2018-07-01T19:54:17.957Z,20.54
2018-07-01T19:56:46.898Z,20.37
2018-07-01T19:59:15.814Z,20.23
2018-07-01T20:01:45.511Z,20.12
2018-07-01T20:04:16.725Z,20.02
2018-07-01T20:06:46.405Z,19.86
2018-07-01T20:09:16.060Z,19.77
2018-07-01T20:11:45.510Z,19.65
2018-07-01T20:14:14.782Z,19.53
2018-07-01T20:16:43.999Z,19.48
2018-07-01T20:19:12.760Z,19.41
2018-07-01T20:21:41.768Z,19.19
2018-07-01T20:24:10.908Z,19.19
2018-07-01T20:26:39.666Z,19.11
2018-07-01T20:29:09.715Z,19.10
2018-07-01T20:31:38.540Z,19.07
2018-07-01T20:34:08.342Z,19.08
2018-07-01T20:36:37.945Z,19.07
2018-07-01T20:39:11.450Z,19.18
2018-07-01T20:41:42.573Z,19.22
2018-07-01T20:44:11.653Z,19.35
2018-07-01T20:46:40.993Z,19.35
2018-07-01T20:49:11.135Z,19.27
2018-07-01T20:51:41.594Z,19.31
2018-07-01T20:54:10.301Z,19.28
2018-07-01T20:56:39.400Z,19.25
2018-07-01T20:59:09.142Z,19.24
2018-07-01T21:01:37.733Z,19.19
2018-07-01T21:04:06.705Z,19.17
2018-07-01T21:06:36.133Z,19.10
2018-07-01T21:09:07.758Z,19.05
2018-07-01T21:11:36.730Z,19.10
2018-07-01T21:14:08.940Z,19.11
2018-07-01T21:16:37.525Z,19.09
2018-07-01T21:19:08.288Z,19.13
2018-07-01T21:21:37.334Z,19.03
2018-07-01T21:24:06.230Z,18.97
2018-07-01T21:26:35.065Z,18.90
2018-07-01T21:29:03.579Z,18.78
2018-07-01T21:31:33.831Z,18.70
2018-07-01T21:34:05.466Z,18.64
2018-07-01T21:36:38.998Z,18.57
2018-07-01T21:39:10.483Z,18.56
2018-07-01T21:41:40.560Z,18.49
2018-07-01T21:44:09.797Z,18.35
2018-07-01T21:46:38.947Z,18.27
2018-07-01T21:49:08.812Z,18.28
2018-07-01T21:51:37.968Z,18.31
2018-07-01T21:54:07.122Z,18.18
2018-07-01T21:56:36.428Z,18.08
2018-07-01T21:59:05.492Z,18.09
2018-07-01T22:01:34.677Z,18.06
2018-07-01T22:04:03.971Z,17.99
2018-07-01T22:06:39.515Z,17.98
2018-07-01T22:09:09.533Z,17.87
2018-07-01T22:11:51.823Z,17.76
2018-07-01T22:14:28.277Z,17.68
2018-07-01T22:16:58.340Z,17.64
2018-07-01T22:19:27.421Z,17.57
2018-07-01T22:22:00.421Z,17.39
2018-07-01T22:24:32.030Z,17.42
2018-07-01T22:27:00.844Z,17.27
2018-07-01T22:29:30.284Z,17.22
2018-07-01T22:31:59.145Z,17.14
2018-07-01T22:34:29.101Z,16.99
2018-07-01T22:36:59.027Z,16.98
2018-07-01T22:39:28.936Z,16.96
2018-07-01T22:42:00.484Z,16.97
2018-07-01T22:44:29.563Z,16.93
2018-07-01T22:46:59.516Z,16.89
2018-07-01T22:49:29.493Z,16.98
2018-07-01T22:52:03.328Z,17.02
2018-07-01T22:54:31.871Z,17.05
2018-07-01T22:57:01.719Z,16.98
2018-07-01T22:59:31.309Z,16.77
2018-07-01T23:03:14.842Z,16.62
2018-07-01T23:05:44.447Z,16.49
2018-07-01T23:08:15.197Z,16.45
2018-07-01T23:10:45.807Z,16.50
2018-07-01T23:13:15.712Z,16.47
2018-07-01T23:15:44.860Z,16.29
2018-07-01T23:18:14.345Z,16.32
2018-07-01T23:20:44.203Z,16.29
2018-07-01T23:23:13.049Z,16.30
2018-07-01T23:25:42.157Z,16.26
2018-07-01T23:28:12.225Z,16.23
2018-07-01T23:30:42.011Z,16.21
2018-07-01T23:33:11.615Z,16.16
2018-07-01T23:35:41.102Z,16.14
2018-07-01T23:38:10.893Z,16.00
2018-07-01T23:40:39.763Z,15.91
2018-07-01T23:43:09.025Z,15.90
2018-07-01T23:45:37.762Z,15.80
2018-07-01T23:48:07.410Z,15.79
2018-07-01T23:50:37.778Z,15.80
2018-07-01T23:53:10.177Z,15.75
2018-07-01T23:55:39.072Z,15.70
2018-07-01T23:58:08.240Z,15.69
